Time;durP1;ratioP1;P1;durP2;ratioP2;P2;SDS_P1;SDS_P2;PMS_P1;PMS_P2;Temp;Humidity;BMP_temperature;BMP_pressure;BME280_temperature;BME280_humidity;BME280_pressure;Samples;Min_cycle;Max_cycle;Signal;HPM_P1;HPM_P2
2021/07/24 00:00:47;;;;;;;3.03;2.60;;;16.50;99.90;;;;;;2016936;29;20281;-75
2021/07/24 00:01:48;;;;;;;2.30;1.93;;;16.50;99.90;;;;;;2015817;29;20257;-76
2021/07/24 00:02:48;;;;;;;2.20;2.00;;;16.50;99.90;;;;;;2018884;29;21562;-77
2021/07/24 00:03:49;;;;;;;2.67;2.47;;;16.50;99.90;;;;;;2020188;29;20178;-76
2021/07/24 00:04:50;;;;;;;3.30;2.87;;;16.50;99.90;;;;;;2009533;29;20191;-76
2021/07/24 00:05:50;;;;;;;5.13;2.37;;;16.50;99.90;;;;;;2009092;29;20191;-75
2021/07/24 00:06:51;;;;;;;3.60;3.30;;;16.50;99.90;;;;;;2023513;29;20190;-76
2021/07/24 00:07:52;;;;;;;2.83;2.27;;;16.60;99.90;;;;;;2024325;29;20761;-76
2021/07/24 00:08:52;;;;;;;2.47;2.30;;;16.60;99.90;;;;;;2024914;29;20210;-78
2021/07/24 00:09:53;;;;;;;2.77;2.40;;;16.50;99.90;;;;;;2028080;29;20185;-74
2021/07/24 00:10:54;;;;;;;2.60;2.40;;;16.50;99.90;;;;;;2025467;29;20217;-73
2021/07/24 00:11:56;;;;;;;8.80;3.17;;;16.50;99.90;;;;;;2017584;29;20245;-75
2021/07/24 00:12:57;;;;;;;2.13;1.92;;;16.50;99.90;;;;;;2026262;29;20434;-72
2021/07/24 00:13:58;;;;;;;3.07;2.87;;;16.50;99.90;;;;;;2024184;29;20556;-74
2021/07/24 00:14:59;;;;;;;3.22;2.75;;;16.50;99.90;;;;;;2023778;29;20222;-74
2021/07/24 00:16:02;;;;;;;2.88;2.53;;;16.40;99.90;;;;;;2022605;29;20665;-76
2021/07/24 00:17:03;;;;;;;2.92;2.63;;;16.40;99.90;;;;;;2024483;29;20200;-75
2021/07/24 00:18:04;;;;;;;3.08;2.88;;;16.40;99.90;;;;;;2023759;29;20696;-77
2021/07/24 00:19:05;;;;;;;1.93;1.80;;;16.40;99.90;;;;;;2024418;29;20256;-75
2021/07/24 00:20:07;;;;;;;4.03;2.43;;;16.40;99.90;;;;;;2025010;29;20597;-73
2021/07/24 00:21:08;;;;;;;8.63;3.72;;;16.40;99.90;;;;;;2020018;29;20207;-76
2021/07/24 00:22:08;;;;;;;4.23;2.73;;;16.40;99.90;;;;;;2023223;29;20772;-73
2021/07/24 00:23:11;;;;;;;2.27;2.03;;;16.40;99.90;;;;;;2024495;29;20192;-73
2021/07/24 00:24:12;;;;;;;2.47;2.30;;;16.40;99.90;;;;;;2023618;29;20185;-74
2021/07/24 00:25:13;;;;;;;4.37;2.33;;;16.40;99.90;;;;;;2016628;29;20185;-75
2021/07/24 00:26:14;;;;;;;3.07;2.77;;;16.40;99.90;;;;;;2008438;29;20184;-73
2021/07/24 00:27:15;;;;;;;4.22;3.35;;;16.40;99.90;;;;;;2016323;29;20546;-73
2021/07/24 00:28:16;;;;;;;4.50;2.53;;;16.40;99.90;;;;;;2024939;29;20189;-73
2021/07/24 00:29:17;;;;;;;2.77;2.30;;;16.40;99.90;;;;;;2024925;29;20182;-74
2021/07/24 00:30:17;;;;;;;3.17;2.10;;;16.40;99.90;;;;;;2023818;29;20920;-74
2021/07/24 00:31:18;;;;;;;2.70;2.50;;;16.40;99.90;;;;;;2016737;29;20182;-74
2021/07/24 00:32:19;;;;;;;2.55;2.35;;;16.30;99.90;;;;;;2016904;29;20334;-74
2021/07/24 00:33:20;;;;;;;3.37;2.53;;;16.40;99.90;;;;;;2024589;29;20671;-75
2021/07/24 00:34:21;;;;;;;2.97;2.77;;;16.30;99.90;;;;;;2016908;29;20198;-67
2021/07/24 00:35:22;;;;;;;2.53;1.93;;;16.30;99.90;;;;;;2018354;29;20218;-75
2021/07/24 00:36:22;;;;;;;3.93;2.93;;;16.30;99.90;;;;;;2025897;29;20193;-75
2021/07/24 00:37:23;;;;;;;4.10;3.17;;;16.30;99.90;;;;;;2025839;29;20633;-74
2021/07/24 00:38:25;;;;;;;2.50;2.30;;;16.30;99.90;;;;;;2032851;29;20596;-74
2021/07/24 00:39:26;;;;;;;2.63;2.38;;;16.30;99.90;;;;;;2025099;29;20886;-75
2021/07/24 00:40:30;;;;;;;3.67;2.40;;;16.30;99.90;;;;;;2017118;29;20224;-74
2021/07/24 00:41:43;;;;;;;2.63;2.42;;;16.20;99.90;;;;;;2017469;29;20186;-74
2021/07/24 00:42:50;;;;;;;4.10;2.50;;;16.20;99.90;;;;;;2025862;29;20677;-74
2021/07/24 00:43:52;;;;;;;2.40;2.20;;;16.20;99.90;;;;;;2018098;29;20174;-75
2021/07/24 00:44:58;;;;;;;4.70;3.22;;;16.20;99.90;;;;;;2018310;29;20182;-75
2021/07/24 00:46:02;;;;;;;2.40;2.20;;;16.20;99.90;;;;;;2025647;29;20166;-75
2021/07/24 00:47:04;;;;;;;2.88;2.33;;;16.20;99.90;;;;;;2017973;29;20189;-74
2021/07/24 00:48:05;;;;;;;4.57;2.38;;;16.20;99.90;;;;;;2025948;29;20676;-75
2021/07/24 00:49:08;;;;;;;4.55;1.67;;;16.20;99.90;;;;;;2025605;29;20185;-74
2021/07/24 00:50:13;;;;;;;1.95;1.83;;;16.20;99.90;;;;;;2018167;29;20199;-75
2021/07/24 00:51:31;;;;;;;3.58;3.17;;;16.20;99.90;;;;;;2025803;29;20198;-74
2021/07/24 00:52:31;;;;;;;4.60;2.38;;;16.20;99.90;;;;;;2025810;29;20173;-75
2021/07/24 00:53:35;;;;;;;1.93;1.80;;;16.20;99.90;;;;;;2018516;29;20190;-75
2021/07/24 00:54:39;;;;;;;8.13;2.33;;;16.10;99.90;;;;;;2026014;29;20188;-74
2021/07/24 00:55:39;;;;;;;4.40;2.58;;;16.20;99.90;;;;;;2025709;29;20181;-74
2021/07/24 00:56:40;;;;;;;4.77;2.40;;;16.10;99.90;;;;;;2018230;29;20214;-75
2021/07/24 00:57:44;;;;;;;3.00;2.50;;;16.10;99.90;;;;;;2018036;29;20178;-75
2021/07/24 00:58:45;;;;;;;2.60;2.17;;;16.00;99.90;;;;;;2026075;29;20776;-74
2021/07/24 00:59:45;;;;;;;3.60;2.73;;;16.00;99.90;;;;;;2033017;29;20185;-75
2021/07/24 01:00:46;;;;;;;2.50;2.30;;;16.00;99.90;;;;;;2025721;29;20777;-74
2021/07/24 01:01:47;;;;;;;4.27;2.40;;;16.00;99.90;;;;;;2017847;29;20201;-74
2021/07/24 01:02:47;;;;;;;2.00;1.90;;;15.90;99.90;;;;;;2025654;29;20192;-75
2021/07/24 01:03:49;;;;;;;3.23;1.90;;;16.00;99.90;;;;;;2025652;29;20182;-74
2021/07/24 01:04:49;;;;;;;2.63;2.35;;;16.00;99.90;;;;;;2025364;29;20190;-74
2021/07/24 01:05:54;;;;;;;3.30;3.00;;;16.00;99.90;;;;;;2025623;29;20653;-75
2021/07/24 01:06:56;;;;;;;5.03;2.42;;;16.00;99.90;;;;;;2018187;29;20186;-74
2021/07/24 01:07:57;;;;;;;1.85;1.75;;;15.90;99.90;;;;;;2018032;29;20239;-75
2021/07/24 01:08:58;;;;;;;4.27;2.97;;;15.90;99.90;;;;;;2025681;29;20744;-75
2021/07/24 01:09:59;;;;;;;6.60;2.42;;;15.80;99.90;;;;;;2025320;29;20189;-74
2021/07/24 01:11:00;;;;;;;2.20;2.03;;;15.80;99.90;;;;;;2017814;29;20560;-75
2021/07/24 01:12:04;;;;;;;4.63;2.70;;;15.80;99.90;;;;;;2025524;29;20200;-75
2021/07/24 01:13:05;;;;;;;3.42;2.85;;;15.80;99.90;;;;;;2025532;29;20186;-73
2021/07/24 01:14:07;;;;;;;2.50;2.30;;;15.80;99.90;;;;;;2025598;29;20221;-75
2021/07/24 01:15:08;;;;;;;8.25;2.78;;;15.80;99.90;;;;;;2026201;29;20592;-73
2021/07/24 01:16:11;;;;;;;4.40;2.75;;;15.80;99.90;;;;;;2017703;29;20221;-73
2021/07/24 01:17:12;;;;;;;5.60;3.05;;;15.80;99.90;;;;;;2018093;29;20187;-75
2021/07/24 01:18:14;;;;;;;4.20;2.60;;;15.80;99.90;;;;;;2033383;29;20192;-73
2021/07/24 01:19:15;;;;;;;2.38;2.17;;;15.80;99.90;;;;;;2025578;29;20193;-73
2021/07/24 01:20:17;;;;;;;3.58;2.35;;;15.80;99.90;;;;;;2025434;29;20197;-75
2021/07/24 01:21:28;;;;;;;2.28;2.13;;;15.90;99.90;;;;;;2025520;29;20260;-75
2021/07/24 01:22:29;;;;;;;4.38;2.28;;;15.90;99.90;;;;;;2025404;29;20236;-75
2021/07/24 01:23:31;;;;;;;3.60;2.80;;;15.90;99.90;;;;;;2026062;29;20178;-75
2021/07/24 01:24:31;;;;;;;4.28;2.58;;;15.90;99.90;;;;;;2025424;29;20181;-75
2021/07/24 01:25:32;;;;;;;3.20;2.50;;;15.90;99.90;;;;;;2017695;29;20190;-75
2021/07/24 01:26:35;;;;;;;2.80;2.60;;;15.90;99.90;;;;;;2017816;29;20178;-76
2021/07/24 01:27:45;;;;;;;2.83;2.63;;;15.90;99.90;;;;;;2017725;29;20185;-76
2021/07/24 01:28:46;;;;;;;4.05;3.05;;;16.00;99.90;;;;;;2018946;29;20178;-75
2021/07/24 01:29:46;;;;;;;3.70;2.40;;;15.90;99.90;;;;;;2017467;29;20214;-75
2021/07/24 01:30:47;;;;;;;3.83;3.03;;;16.00;99.90;;;;;;2025408;29;20209;-75
2021/07/24 01:31:49;;;;;;;2.27;2.07;;;16.00;99.90;;;;;;2026003;29;20209;-75
2021/07/24 01:32:49;;;;;;;3.33;1.65;;;16.00;99.90;;;;;;2025583;29;20177;-75
2021/07/24 01:33:50;;;;;;;3.57;2.53;;;16.00;99.90;;;;;;2025338;29;20558;-75
2021/07/24 01:34:50;;;;;;;2.73;2.53;;;16.00;99.90;;;;;;2025809;29;20178;-75
2021/07/24 01:35:52;;;;;;;2.97;2.77;;;16.00;99.90;;;;;;2026142;29;20178;-75
2021/07/24 01:36:53;;;;;;;2.08;1.95;;;16.00;99.90;;;;;;2025226;29;20182;-75
2021/07/24 01:37:53;;;;;;;2.30;2.10;;;16.00;99.90;;;;;;2017719;29;20632;-75
2021/07/24 01:38:54;;;;;;;2.07;1.87;;;15.90;99.90;;;;;;2024035;29;20290;-75
2021/07/24 01:39:55;;;;;;;2.97;2.67;;;16.00;99.90;;;;;;2032926;29;20209;-75
2021/07/24 01:40:56;;;;;;;3.90;2.67;;;16.00;99.90;;;;;;2025400;29;20186;-75
2021/07/24 01:41:56;;;;;;;5.33;3.20;;;16.00;99.90;;;;;;2017446;29;20816;-75
2021/07/24 01:42:58;;;;;;;2.67;2.40;;;16.00;99.90;;;;;;2018710;29;20213;-75
2021/07/24 01:43:58;;;;;;;2.10;1.42;;;16.00;99.90;;;;;;2024848;29;20185;-75
2021/07/24 01:44:59;;;;;;;3.27;2.23;;;16.10;99.90;;;;;;2025113;29;20649;-75
2021/07/24 01:46:00;;;;;;;2.03;1.93;;;16.10;99.90;;;;;;2032669;29;20265;-75
2021/07/24 01:47:01;;;;;;;4.27;2.17;;;16.10;99.90;;;;;;2033334;29;20239;-75
2021/07/24 01:48:05;;;;;;;3.45;3.15;;;16.00;99.90;;;;;;2033085;29;20568;-75
2021/07/24 01:49:19;;;;;;;3.47;2.30;;;16.00;99.90;;;;;;2025485;29;20189;-75
2021/07/24 01:53:22;;;;;;;3.15;1.45;;;16.00;99.90;;;;;;2032649;29;20173;-75
2021/07/24 01:54:31;;;;;;;2.58;1.83;;;16.00;99.90;;;;;;2028123;29;20192;-75
2021/07/24 01:55:53;;;;;;;3.33;2.63;;;16.00;99.90;;;;;;2034125;29;20166;-75
2021/07/24 01:57:16;;;;;;;2.10;2.00;;;16.00;99.90;;;;;;2033056;29;20613;-75
2021/07/24 01:58:34;;;;;;;4.20;2.28;;;16.00;99.90;;;;;;2028706;29;20177;-74
2021/07/24 01:59:44;;;;;;;2.97;2.28;;;16.00;99.90;;;;;;2027494;29;20181;-76
2021/07/24 02:00:47;;;;;;;3.92;3.33;;;16.10;99.90;;;;;;2026334;29;20177;-74
2021/07/24 02:01:50;;;;;;;3.10;2.80;;;16.00;99.90;;;;;;2025224;29;20181;-74
2021/07/24 02:02:54;;;;;;;4.68;2.78;;;16.00;99.90;;;;;;2025561;29;20228;-74
2021/07/24 02:04:09;;;;;;;1.77;1.67;;;16.10;99.90;;;;;;2026075;29;20524;-74
2021/07/24 02:05:37;;;;;;;3.65;1.88;;;16.10;99.90;;;;;;2019353;29;20559;-74
2021/07/24 02:06:41;;;;;;;3.42;3.13;;;16.10;99.90;;;;;;2031531;29;20224;-75
2021/07/24 02:07:45;;;;;;;2.58;2.38;;;16.20;99.90;;;;;;2032821;29;20192;-74
2021/07/24 02:09:07;;;;;;;3.10;2.75;;;16.20;99.90;;;;;;2025516;29;20174;-74
2021/07/24 02:10:08;;;;;;;3.25;2.88;;;16.30;99.90;;;;;;2012310;29;20619;-74
2021/07/24 02:11:13;;;;;;;3.75;2.53;;;16.30;99.90;;;;;;2009744;29;20705;-77
2021/07/24 02:12:14;;;;;;;2.67;1.80;;;16.40;99.90;;;;;;2017696;29;20197;-75
2021/07/24 02:13:16;;;;;;;3.70;1.83;;;16.40;99.90;;;;;;2017422;29;20218;-75
2021/07/24 02:14:17;;;;;;;2.70;1.83;;;16.40;99.90;;;;;;2025352;29;20441;-75
2021/07/24 02:15:18;;;;;;;3.30;3.00;;;16.40;99.90;;;;;;2025271;29;20182;-75
2021/07/24 02:16:18;;;;;;;5.20;3.47;;;16.40;99.90;;;;;;2025096;29;20661;-75
2021/07/24 02:17:19;;;;;;;3.20;2.93;;;16.40;99.90;;;;;;2024848;29;20178;-75
2021/07/24 02:18:20;;;;;;;1.43;1.33;;;16.40;99.90;;;;;;2017359;29;20261;-75
2021/07/24 02:19:21;;;;;;;2.60;2.40;;;16.30;99.90;;;;;;2025060;29;20216;-75
2021/07/24 02:20:24;;;;;;;2.70;1.97;;;16.30;99.90;;;;;;2032950;29;20731;-74
2021/07/24 02:21:24;;;;;;;2.50;2.30;;;16.30;99.90;;;;;;2032835;29;20208;-75
2021/07/24 02:22:25;;;;;;;3.63;2.73;;;16.40;99.90;;;;;;2032721;29;20619;-75
2021/07/24 02:23:26;;;;;;;3.43;2.47;;;16.40;99.90;;;;;;2017246;29;20190;-75
2021/07/24 02:24:27;;;;;;;1.47;1.37;;;16.50;99.90;;;;;;2017374;29;20230;-75
2021/07/24 02:25:27;;;;;;;4.30;2.33;;;16.50;99.90;;;;;;2024928;29;20177;-75
2021/07/24 02:26:28;;;;;;;5.23;3.47;;;16.60;99.90;;;;;;2024265;29;20181;-75
2021/07/24 02:27:29;;;;;;;2.87;2.23;;;16.60;99.90;;;;;;2032072;29;20177;-75
2021/07/24 02:28:30;;;;;;;4.00;3.30;;;16.70;99.90;;;;;;2032691;29;20180;-75
2021/07/24 02:29:31;;;;;;;4.90;2.25;;;16.70;99.90;;;;;;2025450;29;20186;-75
2021/07/24 02:30:32;;;;;;;4.27;2.33;;;16.70;99.90;;;;;;2032730;29;20590;-75
2021/07/24 02:31:32;;;;;;;4.80;3.07;;;16.70;99.90;;;;;;2025050;29;20206;-77
2021/07/24 02:32:34;;;;;;;3.70;2.37;;;16.70;99.90;;;;;;2024937;29;20229;-75
2021/07/24 02:33:34;;;;;;;2.20;1.80;;;16.70;99.90;;;;;;2032658;29;20181;-75
2021/07/24 02:34:35;;;;;;;2.20;2.00;;;16.80;99.90;;;;;;2032678;29;20425;-75
2021/07/24 02:35:36;;;;;;;2.90;2.37;;;16.80;99.90;;;;;;2032675;29;20185;-74
2021/07/24 02:36:36;;;;;;;3.40;2.77;;;16.70;99.90;;;;;;2032680;29;20698;-74
2021/07/24 02:37:37;;;;;;;2.73;2.53;;;16.80;99.90;;;;;;2024722;29;20599;-75
2021/07/24 02:38:38;;;;;;;4.63;3.07;;;16.80;99.90;;;;;;2024653;29;20188;-75
2021/07/24 02:39:39;;;;;;;3.13;2.57;;;16.80;99.90;;;;;;2032603;29;20441;-75
2021/07/24 02:40:40;;;;;;;2.10;1.90;;;16.80;99.90;;;;;;2032634;29;20205;-74
2021/07/24 02:41:40;;;;;;;2.73;2.53;;;16.90;99.90;;;;;;2032553;29;20223;-75
2021/07/24 02:42:41;;;;;;;3.13;2.80;;;16.90;99.90;;;;;;2025356;29;20773;-75
2021/07/24 02:43:42;;;;;;;4.30;2.30;;;16.90;99.90;;;;;;2024627;29;20187;-75
2021/07/24 02:44:43;;;;;;;2.50;2.30;;;16.90;99.90;;;;;;2024674;29;20200;-75
2021/07/24 02:45:44;;;;;;;2.97;2.17;;;16.90;99.90;;;;;;2016866;29;20277;-75
2021/07/24 02:46:44;;;;;;;4.27;2.93;;;16.90;99.90;;;;;;2009150;29;20575;-75
2021/07/24 02:47:45;;;;;;;3.17;2.00;;;16.90;99.90;;;;;;2016736;29;20725;-74
2021/07/24 02:48:47;;;;;;;3.77;3.40;;;16.90;99.90;;;;;;2024505;29;20686;-74
2021/07/24 02:49:47;;;;;;;3.28;2.28;;;16.90;99.90;;;;;;2032143;29;20200;-75
2021/07/24 02:50:48;;;;;;;7.13;3.30;;;16.90;99.90;;;;;;2024479;29;20648;-75
2021/07/24 02:51:49;;;;;;;3.17;2.07;;;16.90;99.90;;;;;;2024539;29;20181;-75
2021/07/24 02:52:50;;;;;;;3.33;1.77;;;16.90;99.90;;;;;;2024457;29;20189;-75
2021/07/24 02:53:50;;;;;;;3.50;2.77;;;16.90;99.90;;;;;;2024547;29;20186;-74
2021/07/24 02:54:51;;;;;;;6.07;3.03;;;16.90;99.90;;;;;;2024327;29;20186;-75
2021/07/24 02:55:52;;;;;;;4.88;2.33;;;16.90;99.90;;;;;;2016923;29;20257;-75
2021/07/24 02:56:53;;;;;;;2.40;2.20;;;16.90;99.90;;;;;;2024372;29;20189;-75
2021/07/24 02:57:53;;;;;;;4.97;2.57;;;16.90;99.90;;;;;;2025055;29;20313;-75
2021/07/24 02:58:54;;;;;;;6.70;3.03;;;16.90;99.90;;;;;;2024494;29;20194;-75
2021/07/24 02:59:55;;;;;;;3.27;2.30;;;16.90;99.90;;;;;;2024355;29;20241;-75
2021/07/24 03:00:55;;;;;;;3.37;2.20;;;16.90;99.90;;;;;;2032321;29;20209;-74
2021/07/24 03:01:57;;;;;;;2.53;2.33;;;16.90;99.90;;;;;;2024973;29;20527;-75
2021/07/24 03:02:57;;;;;;;3.50;2.00;;;16.90;99.90;;;;;;2024492;29;20730;-75
2021/07/24 03:03:58;;;;;;;4.20;2.23;;;16.90;99.90;;;;;;2024412;29;20513;-74
2021/07/24 03:04:59;;;;;;;3.83;2.83;;;16.90;99.90;;;;;;2032263;29;20185;-75
2021/07/24 03:06:00;;;;;;;8.80;3.40;;;16.90;99.90;;;;;;2032029;29;20185;-74
2021/07/24 03:07:01;;;;;;;3.13;2.23;;;16.90;99.90;;;;;;2032160;29;20682;-75
2021/07/24 03:08:01;;;;;;;2.23;2.13;;;16.80;99.90;;;;;;2024393;29;20193;-74
2021/07/24 03:09:04;;;;;;;3.73;2.77;;;16.90;99.90;;;;;;2024439;29;20772;-75
2021/07/24 03:10:06;;;;;;;3.80;2.20;;;16.80;99.90;;;;;;2025072;29;20210;-75
2021/07/24 03:11:06;;;;;;;1.67;1.57;;;16.90;99.90;;;;;;2018743;29;20489;-74
2021/07/24 03:12:08;;;;;;;4.37;2.40;;;16.80;99.90;;;;;;2025647;29;20464;-74
2021/07/24 03:13:08;;;;;;;6.60;2.53;;;16.80;99.90;;;;;;2025557;29;20209;-75
2021/07/24 03:14:09;;;;;;;2.23;2.03;;;16.80;99.90;;;;;;2017760;29;20186;-75
2021/07/24 03:15:10;;;;;;;2.37;2.17;;;16.90;99.90;;;;;;2018028;29;20238;-74
2021/07/24 03:16:11;;;;;;;2.00;1.90;;;16.90;99.90;;;;;;2025485;29;20181;-74
2021/07/24 03:17:12;;;;;;;2.37;2.17;;;16.90;99.90;;;;;;2026178;29;20430;-75
2021/07/24 03:18:13;;;;;;;3.77;2.83;;;16.90;99.90;;;;;;2033322;29;20321;-74
2021/07/24 03:19:13;;;;;;;7.10;2.77;;;16.90;99.90;;;;;;2033447;29;20971;-75
2021/07/24 03:20:14;;;;;;;3.03;2.77;;;16.90;99.90;;;;;;2026131;29;20570;-75
2021/07/24 03:21:15;;;;;;;4.30;2.70;;;17.00;99.90;;;;;;2026146;29;20276;-74
2021/07/24 03:22:16;;;;;;;3.37;3.07;;;17.00;99.90;;;;;;2033241;29;20216;-74
2021/07/24 03:23:16;;;;;;;3.10;2.80;;;17.00;99.90;;;;;;2033739;29;20446;-75
2021/07/24 03:24:17;;;;;;;6.00;2.90;;;17.10;99.90;;;;;;2025919;29;20233;-75
2021/07/24 03:25:20;;;;;;;2.77;1.83;;;17.00;99.90;;;;;;2018357;29;20174;-74
2021/07/24 03:26:21;;;;;;;2.80;2.57;;;17.00;99.90;;;;;;2018468;29;20186;-74
2021/07/24 03:27:21;;;;;;;4.87;2.30;;;17.10;99.90;;;;;;2025704;29;20514;-75
2021/07/24 03:28:22;;;;;;;4.67;2.53;;;17.10;99.90;;;;;;2033650;29;20205;-75
2021/07/24 03:29:23;;;;;;;2.20;1.97;;;17.00;99.90;;;;;;2033523;29;20668;-74
2021/07/24 03:30:23;;;;;;;2.60;2.43;;;17.00;99.90;;;;;;2026030;29;20224;-75
2021/07/24 03:31:24;;;;;;;2.43;2.23;;;17.00;99.90;;;;;;2033213;29;20213;-74
2021/07/24 03:32:25;;;;;;;3.03;2.27;;;17.00;99.90;;;;;;2026008;29;20192;-74
2021/07/24 03:33:25;;;;;;;4.10;2.03;;;17.10;99.90;;;;;;2026216;29;20192;-74
2021/07/24 03:34:26;;;;;;;2.40;2.20;;;17.10;99.90;;;;;;2033763;29;20189;-75
2021/07/24 03:35:27;;;;;;;2.50;2.10;;;17.10;99.90;;;;;;2026710;29;20181;-75
2021/07/24 03:36:27;;;;;;;2.30;2.20;;;17.10;99.90;;;;;;2033387;29;20670;-75
2021/07/24 03:37:28;;;;;;;2.40;2.17;;;17.10;99.90;;;;;;2034001;29;20209;-74
2021/07/24 03:38:29;;;;;;;1.90;1.80;;;17.10;99.90;;;;;;2034022;29;20278;-75
2021/07/24 03:39:30;;;;;;;2.70;2.43;;;17.00;99.90;;;;;;2026109;29;20278;-74
2021/07/24 03:40:31;;;;;;;2.10;1.90;;;17.10;99.90;;;;;;2026450;29;20197;-75
2021/07/24 03:41:35;;;;;;;4.13;2.97;;;17.10;99.90;;;;;;2026365;29;20190;-75
2021/07/24 03:42:36;;;;;;;5.57;2.00;;;17.10;99.90;;;;;;2026320;29;20480;-74
2021/07/24 03:43:37;;;;;;;2.90;2.53;;;17.10;99.90;;;;;;2033397;29;20429;-75
2021/07/24 03:44:37;;;;;;;2.47;2.27;;;17.10;99.90;;;;;;2025711;29;20270;-74
2021/07/24 03:45:38;;;;;;;3.37;3.07;;;17.00;99.90;;;;;;2025401;29;20252;-75
2021/07/24 03:46:40;;;;;;;2.67;2.13;;;17.00;99.90;;;;;;2034297;29;20184;-74
2021/07/24 03:47:41;;;;;;;2.73;2.27;;;17.10;99.90;;;;;;2034073;29;20173;-75
2021/07/24 03:48:43;;;;;;;4.67;2.93;;;17.10;99.90;;;;;;2025479;29;21109;-75
2021/07/24 03:49:43;;;;;;;3.50;3.20;;;17.00;99.90;;;;;;2025236;29;20186;-74
2021/07/24 03:50:44;;;;;;;3.43;3.00;;;17.00;99.90;;;;;;2032954;29;20935;-75
2021/07/24 03:51:45;;;;;;;3.70;2.80;;;17.10;99.90;;;;;;2033666;29;20204;-75
2021/07/24 03:52:46;;;;;;;3.43;3.10;;;17.10;99.90;;;;;;2033980;29;20230;-75
2021/07/24 03:53:47;;;;;;;3.80;2.90;;;17.10;99.90;;;;;;2028006;29;20240;-75
2021/07/24 03:54:47;;;;;;;3.93;2.40;;;17.10;99.90;;;;;;2026072;29;20237;-74
2021/07/24 03:55:51;;;;;;;6.23;2.87;;;17.10;99.90;;;;;;2026209;29;20512;-74
2021/07/24 03:56:52;;;;;;;2.67;2.37;;;17.00;99.90;;;;;;2018363;29;20183;-74
2021/07/24 03:57:55;;;;;;;4.20;2.63;;;17.10;99.90;;;;;;2018985;29;20509;-75
2021/07/24 03:58:56;;;;;;;2.07;1.67;;;17.10;99.90;;;;;;2025966;29;20212;-75
2021/07/24 04:00:00;;;;;;;2.47;2.27;;;17.10;99.90;;;;;;2018420;29;20966;-75
2021/07/24 04:01:06;;;;;;;3.23;2.80;;;17.20;99.90;;;;;;2025320;29;20209;-75
2021/07/24 04:02:11;;;;;;;2.57;2.27;;;17.10;99.90;;;;;;2025714;29;20980;-74
2021/07/24 04:03:12;;;;;;;2.43;2.17;;;17.10;99.90;;;;;;2019111;29;20498;-75
2021/07/24 04:04:16;;;;;;;2.80;1.97;;;17.20;99.90;;;;;;2017936;29;20422;-75
2021/07/24 04:05:18;;;;;;;7.33;2.70;;;17.20;99.90;;;;;;2018238;29;20178;-75
2021/07/24 04:06:22;;;;;;;1.87;1.67;;;17.20;99.90;;;;;;2025694;29;20905;-75
2021/07/24 04:07:24;;;;;;;4.77;2.73;;;17.20;99.90;;;;;;2025997;29;20433;-75
2021/07/24 04:08:25;;;;;;;2.13;1.90;;;17.20;99.90;;;;;;2025979;29;20422;-74
2021/07/24 04:09:26;;;;;;;3.77;2.77;;;17.30;99.90;;;;;;2026381;29;20438;-74
2021/07/24 04:10:27;;;;;;;2.03;1.70;;;17.30;99.90;;;;;;2011920;29;20456;-75
2021/07/24 04:11:28;;;;;;;2.73;2.33;;;17.40;99.90;;;;;;2010452;29;21002;-75
2021/07/24 04:12:31;;;;;;;2.30;1.43;;;17.40;99.90;;;;;;2025745;29;20193;-75
2021/07/24 04:13:36;;;;;;;3.07;2.73;;;17.40;99.90;;;;;;2025847;29;20935;-75
2021/07/24 04:14:37;;;;;;;2.60;1.67;;;17.40;99.90;;;;;;2025767;29;20830;-75
2021/07/24 04:15:38;;;;;;;4.53;2.13;;;17.50;99.90;;;;;;2017981;29;20453;-74
2021/07/24 04:16:39;;;;;;;3.20;2.90;;;17.50;99.90;;;;;;2017920;29;20442;-75
2021/07/24 04:17:40;;;;;;;2.23;2.03;;;17.50;99.90;;;;;;2017838;29;21014;-75
2021/07/24 04:18:41;;;;;;;2.93;2.37;;;17.50;99.90;;;;;;2018046;29;20559;-75
2021/07/24 04:19:42;;;;;;;6.27;3.07;;;17.60;99.90;;;;;;2017924;29;20194;-74
2021/07/24 04:20:43;;;;;;;2.30;2.10;;;17.50;99.90;;;;;;2025538;29;20449;-75
2021/07/24 04:21:43;;;;;;;2.77;1.83;;;17.50;99.90;;;;;;2026233;29;20185;-75
2021/07/24 04:22:44;;;;;;;3.97;3.37;;;17.50;99.90;;;;;;2026248;29;20552;-75
2021/07/24 04:23:45;;;;;;;5.63;3.17;;;17.50;99.90;;;;;;2017958;29;20182;-74
2021/07/24 04:24:45;;;;;;;2.10;1.87;;;17.50;99.90;;;;;;2017930;29;20257;-75
2021/07/24 04:25:46;;;;;;;3.37;2.17;;;17.50;99.90;;;;;;2033348;29;20185;-75
2021/07/24 04:26:47;;;;;;;6.60;1.93;;;17.50;99.90;;;;;;2017712;29;20225;-74
2021/07/24 04:27:48;;;;;;;3.17;2.30;;;17.40;99.90;;;;;;2017805;29;20262;-75
2021/07/24 04:28:48;;;;;;;2.27;1.83;;;17.40;99.90;;;;;;2033331;29;20840;-75
2021/07/24 04:29:49;;;;;;;6.07;2.20;;;17.40;99.90;;;;;;2025419;29;20430;-74
2021/07/24 04:30:50;;;;;;;3.37;2.07;;;17.40;99.90;;;;;;2025546;29;20178;-75
2021/07/24 04:31:52;;;;;;;5.00;2.80;;;17.50;99.90;;;;;;2033390;29;20727;-74
2021/07/24 04:32:52;;;;;;;3.00;2.23;;;17.50;99.90;;;;;;2025534;29;20181;-75
2021/07/24 04:33:53;;;;;;;13.53;3.07;;;17.60;99.90;;;;;;2025583;29;20426;-74
2021/07/24 04:34:54;;;;;;;3.17;2.00;;;17.60;99.90;;;;;;2017682;29;20289;-75
2021/07/24 04:35:54;;;;;;;2.43;2.23;;;17.70;99.90;;;;;;2017885;29;20190;-75
2021/07/24 04:36:55;;;;;;;1.63;1.53;;;17.70;99.90;;;;;;2025315;29;20186;-75
2021/07/24 04:37:56;;;;;;;2.53;2.37;;;17.70;99.90;;;;;;2025538;29;20182;-75
2021/07/24 04:38:57;;;;;;;2.80;1.87;;;17.80;99.90;;;;;;2025347;29;20430;-75
2021/07/24 04:39:57;;;;;;;3.47;2.23;;;17.90;99.90;;;;;;2025330;29;20184;-75
2021/07/24 04:40:58;;;;;;;2.87;2.60;;;18.00;99.90;;;;;;2026144;29;20185;-75
2021/07/24 04:41:59;;;;;;;4.20;2.33;;;18.00;99.90;;;;;;2025907;29;20562;-74
2021/07/24 04:42:59;;;;;;;1.80;1.70;;;18.10;99.90;;;;;;2026158;29;20208;-75
2021/07/24 04:44:00;;;;;;;2.60;2.20;;;18.20;99.90;;;;;;2026038;29;20181;-75
2021/07/24 04:45:01;;;;;;;3.93;2.50;;;18.20;99.90;;;;;;2025568;29;20670;-75
2021/07/24 04:46:02;;;;;;;3.60;2.07;;;18.30;99.90;;;;;;2017673;29;20197;-75
2021/07/24 04:47:03;;;;;;;3.50;1.83;;;18.30;99.90;;;;;;2025304;29;20234;-75
2021/07/24 04:48:04;;;;;;;4.83;3.07;;;18.40;99.90;;;;;;2025426;29;20197;-74
2021/07/24 04:49:04;;;;;;;2.40;1.87;;;18.40;99.90;;;;;;2025428;29;20194;-74
2021/07/24 04:50:06;;;;;;;3.03;2.23;;;18.50;99.90;;;;;;2024853;29;20452;-75
2021/07/24 04:51:07;;;;;;;2.00;1.57;;;18.60;99.90;;;;;;2017711;29;20637;-75
2021/07/24 04:52:08;;;;;;;1.63;1.53;;;18.60;99.90;;;;;;2017673;29;20938;-75
2021/07/24 04:53:13;;;;;;;4.60;2.47;;;18.70;99.90;;;;;;2017625;29;20431;-75
2021/07/24 04:54:14;;;;;;;2.57;2.07;;;18.70;99.90;;;;;;2018086;29;20273;-75
2021/07/24 04:55:15;;;;;;;2.50;2.30;;;18.80;99.90;;;;;;2017545;29;20453;-74
2021/07/24 04:56:16;;;;;;;3.60;2.20;;;18.70;99.90;;;;;;2010717;29;20455;-74
2021/07/24 04:57:18;;;;;;;1.97;1.87;;;18.80;99.90;;;;;;2009679;29;20573;-74
2021/07/24 04:58:21;;;;;;;1.63;1.53;;;18.70;99.90;;;;;;2022660;29;20244;-74
2021/07/24 04:59:22;;;;;;;2.10;1.73;;;18.70;99.90;;;;;;2032973;29;20472;-75
2021/07/24 05:00:22;;;;;;;2.77;2.00;;;18.70;99.90;;;;;;2025169;29;20442;-75
2021/07/24 05:01:23;;;;;;;2.30;1.97;;;18.70;99.90;;;;;;2017622;29;20231;-75
2021/07/24 05:02:24;;;;;;;2.40;2.20;;;18.70;99.90;;;;;;2017370;29;20226;-75
2021/07/24 05:03:25;;;;;;;3.70;2.37;;;18.80;99.90;;;;;;2017481;29;20206;-75
2021/07/24 05:04:26;;;;;;;2.67;2.23;;;18.80;99.90;;;;;;2016383;29;20914;-75
2021/07/24 05:05:26;;;;;;;2.17;1.53;;;18.80;99.90;;;;;;2025263;29;20193;-74
2021/07/24 05:06:30;;;;;;;4.07;1.87;;;18.80;99.90;;;;;;2017325;29;20183;-75
2021/07/24 05:07:32;;;;;;;1.47;1.27;;;18.80;99.90;;;;;;2017678;29;20614;-75
2021/07/24 05:08:33;;;;;;;2.87;1.80;;;18.70;99.90;;;;;;2025310;29;20438;-75
2021/07/24 05:09:34;;;;;;;5.33;2.57;;;18.70;99.90;;;;;;2025147;29;20413;-75
2021/07/24 05:10:36;;;;;;;3.33;2.40;;;18.70;99.90;;;;;;2025054;29;20446;-75
2021/07/24 05:11:36;;;;;;;2.70;2.50;;;18.70;99.90;;;;;;2025692;29;20819;-75
2021/07/24 05:12:37;;;;;;;2.93;1.83;;;18.70;99.90;;;;;;2025136;29;20457;-75
2021/07/24 05:13:38;;;;;;;1.97;1.67;;;18.60;99.90;;;;;;2017505;29;20310;-75
2021/07/24 05:14:39;;;;;;;4.17;2.20;;;18.60;99.90;;;;;;2017213;29;20741;-75
2021/07/24 05:15:39;;;;;;;5.03;2.37;;;18.60;99.90;;;;;;2017534;29;20231;-75
2021/07/24 05:16:40;;;;;;;2.53;2.33;;;18.60;99.90;;;;;;2025056;29;20462;-75
2021/07/24 05:17:41;;;;;;;1.47;1.37;;;18.70;99.90;;;;;;2025072;29;20186;-75
2021/07/24 05:18:41;;;;;;;4.13;2.63;;;18.70;99.90;;;;;;2017186;29;20197;-74
2021/07/24 05:19:45;;;;;;;6.43;2.97;;;18.70;99.90;;;;;;2017382;29;20898;-75
2021/07/24 05:20:46;;;;;;;3.40;1.73;;;18.80;99.90;;;;;;2032271;29;20327;-75
2021/07/24 05:21:46;;;;;;;2.20;1.60;;;18.80;99.90;;;;;;2024517;29;20573;-75
2021/07/24 05:22:47;;;;;;;7.93;2.27;;;18.80;99.90;;;;;;2017260;29;20192;-75
2021/07/24 05:23:48;;;;;;;3.87;2.07;;;18.80;99.90;;;;;;2017515;29;20194;-75
2021/07/24 05:24:48;;;;;;;2.63;1.47;;;18.90;99.90;;;;;;2017254;29;20191;-75
2021/07/24 05:25:49;;;;;;;3.30;1.93;;;18.90;99.90;;;;;;2025028;29;20704;-75